Time;durP1;ratioP1;P1;durP2;ratioP2;P2;SDS_P1;SDS_P2;PMS_P1;PMS_P2;Temp;Humidity;BMP_temperature;BMP_pressure;BME280_temperature;BME280_humidity;BME280_pressure;Samples;Min_cycle;Max_cycle;Signal;HPM_P1;HPM_P2
2024/02/14 00:00:15;;;;;;;6.13;1.67;;;7.10;59.20;;;2.21;100.00;95981.94;4929815;29;20506;-51
2024/02/14 00:02:49;;;;;;;3.80;1.70;;;7.20;59.30;;;2.24;100.00;95983.34;4934639;28;20062;-54
2024/02/14 00:05:15;;;;;;;2.60;1.60;;;7.20;59.30;;;2.26;100.00;95983.97;4950080;28;20019;-49
2024/02/14 00:07:41;;;;;;;5.85;1.92;;;7.20;59.20;;;2.30;100.00;95977.28;4935065;29;20085;-54
2024/02/14 00:10:09;;;;;;;4.35;1.27;;;7.20;59.20;;;2.30;100.00;95987.81;4948808;28;20031;-54
2024/02/14 00:12:36;;;;;;;1.98;1.30;;;7.20;59.20;;;2.35;99.35;95995.91;4950069;28;20568;-52
2024/02/14 00:15:06;;;;;;;3.95;1.23;;;7.30;59.20;;;2.38;98.90;95990.22;4934330;29;20498;-54
2024/02/14 00:17:33;;;;;;;2.10;1.20;;;7.30;59.20;;;2.39;97.83;95996.31;4935356;29;20303;-54
2024/02/14 00:20:01;;;;;;;2.67;1.30;;;7.30;59.10;;;2.45;97.54;96000.75;4933615;29;20581;-52
2024/02/14 00:22:27;;;;;;;2.05;1.33;;;7.30;59.10;;;2.49;97.80;95999.31;4950890;28;20034;-54
2024/02/14 00:24:53;;;;;;;3.83;1.20;;;7.40;59.10;;;2.50;97.13;96006.19;4935329;29;20023;-50
2024/02/14 00:27:19;;;;;;;1.92;1.20;;;7.40;59.00;;;2.51;96.64;96003.38;4934656;28;20557;-50
2024/02/14 00:29:46;;;;;;;3.70;1.25;;;7.40;58.90;;;2.54;96.18;96002.16;4934441;29;20027;-53
2024/02/14 00:32:13;;;;;;;4.03;1.45;;;7.50;58.90;;;2.60;95.50;96003.97;4936287;28;20034;-52
2024/02/14 00:34:39;;;;;;;1.80;1.00;;;7.50;58.80;;;2.63;96.10;96000.13;4938501;28;20023;-52
2024/02/14 00:37:04;;;;;;;2.53;1.50;;;7.50;58.80;;;2.63;93.88;96002.75;4949452;28;20042;-50
2024/02/14 00:39:30;;;;;;;4.05;1.70;;;7.50;58.70;;;2.65;93.59;96001.53;4936119;28;20023;-50
2024/02/14 00:41:56;;;;;;;1.48;1.10;;;7.50;58.60;;;2.70;93.39;96001.75;4934676;28;20037;-56
2024/02/14 00:44:22;;;;;;;5.25;1.10;;;7.60;58.60;;;2.74;92.81;96007.41;4934127;29;20034;-56
2024/02/14 00:46:49;;;;;;;1.55;1.10;;;7.60;58.60;;;2.72;92.63;96012.84;4949365;28;20130;-51
2024/02/14 00:49:15;;;;;;;3.10;1.38;;;7.60;58.50;;;2.75;92.91;96004.53;4934468;29;20019;-53
2024/02/14 00:51:41;;;;;;;1.63;0.90;;;7.60;58.40;;;2.79;91.49;96010.22;4933886;29;20023;-51
2024/02/14 00:54:08;;;;;;;3.30;1.38;;;7.60;58.50;;;2.81;92.43;96010.81;4934745;29;20382;-54
2024/02/14 00:56:34;;;;;;;2.45;1.27;;;7.70;58.40;;;2.78;92.29;96005.97;4933666;29;20502;-51
2024/02/14 00:59:01;;;;;;;2.03;1.23;;;7.70;58.40;;;2.75;92.89;96014.25;4948802;28;20110;-51
2024/02/14 01:01:27;;;;;;;1.92;1.40;;;7.70;58.40;;;2.75;92.98;96012.44;4949018;28;20410;-54
2024/02/14 01:03:53;;;;;;;4.32;1.40;;;7.70;58.30;;;2.72;92.84;96014.69;4933598;29;20038;-55
2024/02/14 01:06:19;;;;;;;3.10;1.33;;;7.70;58.30;;;2.68;93.87;96009.00;4933032;29;20035;-49
2024/02/14 01:08:45;;;;;;;2.50;1.25;;;7.70;58.30;;;2.60;95.41;96016.31;4933936;28;20489;-50
2024/02/14 01:11:12;;;;;;;3.03;1.40;;;7.60;58.20;;;2.54;95.09;96015.31;4933103;29;20035;-51
2024/02/14 01:13:38;;;;;;;1.25;1.10;;;7.60;58.20;;;2.52;95.52;96019.97;4936090;28;20026;-51
2024/02/14 01:16:04;;;;;;;2.33;1.00;;;7.60;58.20;;;2.48;95.56;96021.38;4935491;28;20035;-55
2024/02/14 01:18:31;;;;;;;1.73;1.20;;;7.50;58.20;;;2.46;95.64;96023.41;4934543;28;20031;-54
2024/02/14 01:21:01;;;;;;;2.22;1.10;;;7.50;58.20;;;2.41;95.33;96028.44;4933109;29;20046;-53
2024/02/14 01:23:27;;;;;;;4.10;1.20;;;7.50;58.20;;;2.41;94.86;96031.88;4937115;28;20406;-54
2024/02/14 01:25:54;;;;;;;2.05;1.25;;;7.40;58.20;;;2.38;95.17;96039.38;4933740;29;20061;-54
2024/02/14 01:28:21;;;;;;;2.80;1.20;;;7.40;58.20;;;2.36;96.06;96034.31;4937615;28;20054;-51
2024/02/14 01:30:47;;;;;;;1.52;1.10;;;7.40;58.30;;;2.34;96.29;96025.00;4934151;29;20069;-51
2024/02/14 01:33:13;;;;;;;2.45;1.15;;;7.40;58.30;;;2.29;97.66;96023.00;4933829;29;20047;-53
2024/02/14 01:35:39;;;;;;;1.48;1.08;;;7.40;58.40;;;2.28;98.49;96024.78;4933926;29;20046;-53
2024/02/14 01:38:06;;;;;;;1.25;0.95;;;7.40;58.50;;;2.27;98.51;96030.28;4933300;28;20050;-50
2024/02/14 01:40:32;;;;;;;2.05;1.15;;;7.30;58.40;;;2.25;98.26;96029.66;4933887;29;20023;-50
2024/02/14 01:42:57;;;;;;;1.60;1.10;;;7.30;58.50;;;2.23;98.62;96034.31;4953669;28;20077;-52
2024/02/14 01:45:23;;;;;;;3.33;1.10;;;7.30;58.60;;;2.20;100.00;96032.09;4932871;29;20078;-54
2024/02/14 01:47:51;;;;;;;3.17;1.38;;;7.30;58.60;;;2.17;100.00;96035.94;4933987;29;20685;-51
2024/02/14 01:50:18;;;;;;;4.93;1.27;;;7.30;58.70;;;2.16;100.00;96026.41;4935162;28;20926;-52
2024/02/14 01:52:45;;;;;;;2.88;1.13;;;7.20;58.70;;;2.15;100.00;96027.41;4935302;28;20432;-50
2024/02/14 01:55:13;;;;;;;4.70;1.30;;;7.20;58.80;;;2.20;100.00;96024.22;4933431;29;20027;-53
2024/02/14 01:57:39;;;;;;;2.40;1.30;;;7.20;58.90;;;2.21;99.48;96020.56;4936549;28;20029;-53
2024/02/14 02:00:17;;;;;;;6.05;1.10;;;7.30;58.90;;;2.28;99.40;96024.78;4933558;29;20043;-53
2024/02/14 02:02:44;;;;;;;3.55;1.30;;;7.30;58.90;;;2.30;99.28;96024.63;4943555;28;20031;-51
2024/02/14 02:05:10;;;;;;;2.75;1.20;;;7.30;58.90;;;2.33;99.69;96020.78;4947886;28;20023;-51
2024/02/14 02:07:39;;;;;;;1.98;1.20;;;7.30;59.00;;;2.38;99.01;96024.41;4933050;29;20502;-54
2024/02/14 02:10:06;;;;;;;1.30;1.15;;;7.30;59.00;;;2.53;98.04;96022.38;4947243;28;20110;-52
2024/02/14 02:12:32;;;;;;;5.15;1.20;;;7.40;59.20;;;2.68;96.12;96021.38;4933820;28;20031;-50
2024/02/14 02:14:58;;;;;;;2.33;0.90;;;7.50;59.30;;;2.80;95.38;96013.66;4932130;29;20398;-50
2024/02/14 02:17:24;;;;;;;3.92;1.42;;;7.50;59.20;;;2.88;95.32;96016.88;4933285;28;20110;-52
2024/02/14 02:19:53;;;;;;;1.90;1.05;;;7.60;59.20;;;2.93;94.94;96019.69;4933159;29;20451;-51
2024/02/14 02:22:19;;;;;;;2.17;1.13;;;7.70;59.10;;;2.93;94.91;96024.97;4945862;28;20038;-49
2024/02/14 02:24:45;;;;;;;3.58;1.20;;;7.70;59.00;;;2.83;95.86;96021.16;4947408;28;20023;-52
2024/02/14 02:27:13;;;;;;;3.42;1.20;;;7.70;58.80;;;2.75;95.59;96009.00;4932321;28;20143;-50
2024/02/14 02:29:39;;;;;;;6.28;1.02;;;7.70;58.60;;;2.77;95.53;96012.25;4936422;28;20557;-50
2024/02/14 02:32:06;;;;;;;2.13;1.00;;;7.70;58.60;;;2.73;95.62;96016.31;4932340;29;20502;-51
2024/02/14 02:34:32;;;;;;;4.78;1.50;;;7.70;58.60;;;2.66;96.70;96007.59;4933184;29;20383;-54
2024/02/14 02:36:58;;;;;;;2.08;0.95;;;7.60;59.10;;;2.62;96.17;95994.03;4932383;29;20031;-55
2024/02/14 02:39:24;;;;;;;3.17;1.67;;;7.60;58.50;;;2.62;95.95;95998.50;4932189;29;20030;-49
2024/02/14 02:41:50;;;;;;;2.50;1.13;;;7.50;58.50;;;2.53;97.35;95992.63;4932823;29;20120;-51
2024/02/14 02:44:16;;;;;;;1.95;1.40;;;7.50;58.60;;;2.43;98.55;95993.06;4932143;28;20677;-54
2024/02/14 02:46:45;;;;;;;3.15;2.00;;;7.50;58.60;;;2.40;98.55;95997.91;4932454;29;20046;-52
2024/02/14 02:49:13;;;;;;;2.13;1.15;;;7.40;58.70;;;2.36;98.29;95997.50;4932958;28;20122;-49
2024/02/14 02:51:39;;;;;;;3.03;1.73;;;7.30;58.60;;;2.29;98.64;96000.16;4931375;28;20093;-50
2024/02/14 02:54:05;;;;;;;2.55;1.27;;;7.20;58.60;;;2.24;98.30;95997.31;4925370;29;20026;-49
2024/02/14 02:56:33;;;;;;;1.65;1.30;;;7.10;58.60;;;2.17;97.93;95993.06;4931393;29;20053;-53
2024/02/14 02:58:59;;;;;;;3.05;0.90;;;7.10;58.70;;;2.12;97.58;95996.28;4932900;29;20019;-50
2024/02/14 03:01:28;;;;;;;2.83;1.02;;;7.00;58.80;;;2.07;97.86;95998.72;4932682;29;20106;-50
2024/02/14 03:03:53;;;;;;;2.05;1.33;;;7.00;58.80;;;2.01;97.48;95996.91;4931677;28;20034;-54
2024/02/14 03:06:20;;;;;;;2.22;1.20;;;6.90;58.80;;;1.93;97.92;95999.69;4931725;29;20046;-51
2024/02/14 03:08:46;;;;;;;5.40;1.10;;;6.80;58.80;;;1.83;98.39;96000.09;4946143;28;20330;-52
2024/02/14 03:11:12;;;;;;;4.72;1.60;;;6.80;58.80;;;1.74;98.73;96002.09;4932617;29;20061;-52
2024/02/14 03:13:40;;;;;;;2.85;1.25;;;6.70;58.90;;;1.66;98.69;96002.28;4932946;29;20042;-51
2024/02/14 03:16:07;;;;;;;2.85;1.20;;;6.60;58.90;;;1.55;99.66;96005.47;4950663;28;20094;-51
2024/02/14 03:18:32;;;;;;;4.10;1.30;;;6.60;58.90;;;1.52;99.29;96011.13;4932445;29;20035;-53
2024/02/14 03:20:58;;;;;;;3.00;1.25;;;6.50;59.00;;;1.46;99.69;96011.91;4931420;29;20544;-53
2024/02/14 03:23:24;;;;;;;2.47;1.13;;;6.50;59.10;;;1.31;100.00;96012.03;4947245;28;20034;-51
2024/02/14 03:25:51;;;;;;;5.80;1.52;;;6.50;59.20;;;1.28;100.00;96013.25;4932046;29;20549;-49
2024/02/14 03:28:17;;;;;;;2.55;1.27;;;6.40;59.20;;;1.29;100.00;96011.44;4930353;29;20130;-50
2024/02/14 03:30:43;;;;;;;1.85;1.15;;;6.40;59.30;;;1.28;100.00;96020.31;4953180;28;20393;-53
2024/02/14 03:33:09;;;;;;;2.33;1.10;;;6.40;59.30;;;1.30;100.00;96016.50;4931771;29;20027;-51
2024/02/14 03:35:35;;;;;;;4.32;1.35;;;6.40;59.50;;;1.33;100.00;96020.53;4931987;29;20019;-57
2024/02/14 03:38:03;;;;;;;3.85;1.10;;;6.40;59.50;;;1.36;100.00;96017.53;4931762;29;20045;-54
2024/02/14 03:40:32;;;;;;;3.28;1.20;;;6.40;59.60;;;1.44;100.00;96016.53;4932216;29;20027;-50
2024/02/14 03:42:57;;;;;;;2.35;1.30;;;6.40;59.60;;;1.53;100.00;96013.53;4932008;29;20085;-50
2024/02/14 03:45:23;;;;;;;3.85;1.75;;;6.50;59.70;;;1.60;100.00;96016.22;4930905;29;20023;-54
2024/02/14 03:47:49;;;;;;;2.75;1.20;;;6.60;59.70;;;1.65;100.00;96018.22;4931319;29;20030;-54
2024/02/14 03:50:15;;;;;;;3.80;1.33;;;6.60;59.80;;;1.73;100.00;96025.94;4946906;28;20640;-57
2024/02/14 03:52:45;;;;;;;3.15;1.23;;;6.70;59.70;;;1.80;100.00;96016.25;4934347;28;20030;-50
2024/02/14 03:55:13;;;;;;;4.70;1.30;;;6.80;59.70;;;1.82;100.00;96015.06;4931754;29;20027;-52
2024/02/14 03:57:40;;;;;;;3.38;1.10;;;6.80;59.60;;;1.90;100.00;96021.94;4936361;29;20050;-56
2024/02/14 04:00:10;;;;;;;4.95;1.65;;;6.90;59.70;;;1.98;100.00;96027.00;4931760;28;20134;-50
2024/02/14 04:02:36;;;;;;;3.15;1.00;;;6.90;59.60;;;2.03;99.83;96031.66;4931252;29;20066;-54
2024/02/14 04:05:06;;;;;;;4.00;1.13;;;7.00;59.70;;;2.10;99.39;96021.97;4931656;29;20402;-54
2024/02/14 04:07:34;;;;;;;2.70;1.10;;;7.00;59.60;;;2.17;100.00;96028.03;4931523;29;20038;-50
2024/02/14 04:10:00;;;;;;;3.78;1.30;;;7.00;59.60;;;2.21;99.26;96029.25;4945113;28;20077;-54
2024/02/14 04:12:26;;;;;;;4.03;1.10;;;7.10;59.60;;;2.25;99.63;96027.03;4931919;29;20027;-55
2024/02/14 04:14:52;;;;;;;1.98;1.20;;;7.10;59.60;;;2.25;99.70;96029.66;4930686;29;20019;-53
2024/02/14 04:17:17;;;;;;;2.58;1.10;;;7.10;59.60;;;2.22;99.15;96027.44;4931953;28;20027;-53
2024/02/14 04:19:43;;;;;;;2.22;1.20;;;7.10;59.50;;;2.24;99.14;96028.84;4934840;29;20019;-51
2024/02/14 04:22:09;;;;;;;2.45;1.20;;;7.20;59.60;;;2.22;98.55;96028.22;4930988;29;20050;-51
2024/02/14 04:24:35;;;;;;;3.17;1.20;;;7.10;59.40;;;2.16;98.37;96031.66;4936583;29;20027;-49
2024/02/14 04:27:03;;;;;;;2.33;0.98;;;7.10;59.40;;;2.18;98.39;96045.41;4945260;28;20122;-54
2024/02/14 04:29:32;;;;;;;3.10;1.30;;;7.10;59.30;;;2.19;98.05;96047.03;4946382;28;20026;-54
2024/02/14 04:31:59;;;;;;;2.65;1.05;;;7.10;59.40;;;2.24;95.89;96043.81;4931013;29;20106;-56
2024/02/14 04:34:26;;;;;;;4.07;1.20;;;7.10;59.50;;;2.26;95.69;96037.34;4931888;29;20023;-52
2024/02/14 04:36:52;;;;;;;1.80;1.00;;;7.10;59.50;;;2.24;95.78;96039.38;4931530;29;20026;-50
2024/02/14 04:39:19;;;;;;;2.80;1.20;;;7.10;59.40;;;2.18;95.28;96040.16;4930669;29;20494;-53
2024/02/14 04:41:44;;;;;;;2.97;1.15;;;7.10;59.30;;;2.11;95.91;96039.34;4933375;29;20034;-50
2024/02/14 04:44:10;;;;;;;2.33;1.20;;;7.00;59.30;;;2.04;95.89;96038.53;4933994;29;20034;-54
2024/02/14 04:46:37;;;;;;;2.38;1.15;;;7.10;59.30;;;1.93;97.80;96044.38;4934731;28;20134;-54
2024/02/14 04:49:03;;;;;;;3.60;1.17;;;7.00;59.20;;;1.85;98.19;96043.56;4934398;28;20389;-54
2024/02/14 04:51:31;;;;;;;2.60;1.13;;;6.90;59.20;;;1.71;99.30;96034.00;4933939;29;20478;-51
2024/02/14 04:54:00;;;;;;;2.38;1.25;;;6.90;59.20;;;1.73;99.43;96046.97;4949579;28;20031;-57
2024/02/14 04:56:27;;;;;;;1.88;1.00;;;6.90;59.20;;;1.71;99.36;96051.59;4948026;28;20453;-55
2024/02/14 04:58:56;;;;;;;2.45;1.25;;;6.80;59.30;;;1.70;99.77;96044.72;4949597;28;20367;-55
2024/02/14 05:01:22;;;;;;;4.03;1.20;;;6.80;59.40;;;1.68;100.00;96047.53;4934722;29;20049;-53
2024/02/14 05:03:49;;;;;;;3.35;1.10;;;6.80;59.40;;;1.71;100.00;96052.38;4933734;28;20398;-52
2024/02/14 05:06:15;;;;;;;3.85;1.10;;;6.80;59.50;;;1.77;100.00;96050.78;4948545;28;20110;-51
2024/02/14 05:08:41;;;;;;;1.88;1.08;;;6.80;59.60;;;1.82;100.00;96043.94;4947493;28;20019;-53
2024/02/14 05:11:07;;;;;;;3.53;1.48;;;6.80;59.50;;;1.83;99.72;96047.38;4934589;29;20481;-51
2024/02/14 05:13:33;;;;;;;6.30;1.40;;;6.80;59.60;;;1.90;99.51;96058.72;4934531;29;20073;-51
2024/02/14 05:16:04;;;;;;;2.38;1.30;;;6.90;59.70;;;1.97;99.33;96062.16;4933460;29;20440;-51
2024/02/14 05:18:30;;;;;;;4.03;1.45;;;6.90;59.70;;;2.02;98.22;96056.31;4934244;29;20065;-51
2024/02/14 05:20:56;;;;;;;4.28;1.20;;;7.00;59.70;;;2.11;97.44;96054.31;4933620;29;20030;-50
2024/02/14 05:23:22;;;;;;;1.90;1.00;;;7.00;59.70;;;2.17;97.21;96062.22;4938340;28;20031;-50
2024/02/14 05:25:50;;;;;;;1.88;0.90;;;7.00;59.70;;;2.24;93.03;96065.66;4933734;29;20557;-56
2024/02/14 05:28:18;;;;;;;3.55;1.38;;;7.10;59.60;;;2.33;94.65;96070.72;4933292;29;20434;-52
2024/02/14 05:30:44;;;;;;;5.18;1.17;;;7.20;59.60;;;2.37;93.68;96072.75;4934177;29;20033;-51
2024/02/14 05:33:11;;;;;;;0.77;0.77;;;7.20;59.40;;;2.43;93.43;96076.41;4933477;29;20015;-54
2024/02/14 05:35:37;;;;;;;5.43;2.70;;;7.30;59.40;;;2.45;93.67;96064.66;4933801;29;20077;-53
2024/02/14 05:38:04;;;;;;;2.83;1.25;;;7.30;59.20;;;2.44;93.18;96065.66;4934055;29;20561;-55
2024/02/14 05:40:30;;;;;;;1.25;0.90;;;7.30;59.20;;;2.38;92.67;96065.66;4946408;28;20031;-53
2024/02/14 05:42:56;;;;;;;2.25;1.40;;;7.30;59.10;;;2.37;91.94;96067.47;4934388;28;20084;-52
2024/02/14 05:45:22;;;;;;;5.15;2.33;;;7.30;59.00;;;2.41;91.78;96073.16;4932913;28;20438;-50
2024/02/14 05:47:48;;;;;;;5.20;1.40;;;7.30;58.90;;;2.39;91.65;96069.94;4933913;29;20031;-53
2024/02/14 05:50:13;;;;;;;3.70;1.60;;;7.30;58.90;;;2.36;90.07;96065.88;4947887;28;20023;-54
2024/02/14 05:52:39;;;;;;;4.03;2.10;;;7.30;58.80;;;2.34;91.18;96057.38;4933251;29;20766;-53
2024/02/14 05:55:07;;;;;;;3.38;1.98;;;7.30;58.80;;;2.35;91.86;96068.69;4947973;28;20027;-52
2024/02/14 05:57:33;;;;;;;2.78;1.60;;;7.30;58.80;;;2.27;91.40;96056.56;4933305;28;20062;-51
2024/02/14 05:59:59;;;;;;;2.80;1.60;;;7.30;58.70;;;2.19;89.85;96062.81;4932947;29;20035;-52
2024/02/14 06:02:25;;;;;;;2.08;1.58;;;7.20;58.60;;;2.15;90.02;96066.84;4932613;29;20030;-49
2024/02/14 06:04:51;;;;;;;2.38;1.60;;;7.20;58.60;;;2.16;90.64;96070.28;4932685;29;20090;-51
2024/02/14 06:07:17;;;;;;;2.40;1.63;;;7.10;58.50;;;2.11;90.78;96075.34;4932820;29;20035;-52
2024/02/14 06:09:42;;;;;;;8.15;1.67;;;7.10;58.50;;;2.04;90.83;96081.41;4932506;29;20394;-52
2024/02/14 06:12:08;;;;;;;3.00;1.60;;;7.00;58.50;;;2.01;90.98;96083.63;4933558;29;20025;-50
2024/02/14 06:14:35;;;;;;;2.47;1.25;;;7.00;58.60;;;1.98;91.12;96092.69;4933199;28;20475;-51
2024/02/14 06:17:01;;;;;;;1.65;1.20;;;7.00;58.70;;;1.97;90.55;96093.69;4933155;29;20019;-50
2024/02/14 06:19:27;;;;;;;3.53;1.10;;;7.00;58.80;;;1.97;90.04;96096.31;4933144;28;20034;-53
2024/02/14 06:21:53;;;;;;;1.50;1.00;;;7.00;58.70;;;1.91;91.30;96097.09;4947020;28;20029;-51
2024/02/14 06:24:19;;;;;;;1.73;0.98;;;7.00;58.60;;;1.78;91.90;96091.81;4932678;29;20093;-53
2024/02/14 06:26:46;;;;;;;5.60;1.23;;;6.90;58.60;;;1.78;92.77;96089.19;4934675;28;20058;-52
2024/02/14 06:29:12;;;;;;;1.55;1.00;;;6.90;58.60;;;1.72;92.68;96095.22;4933271;29;20091;-54
2024/02/14 06:31:38;;;;;;;3.97;1.17;;;6.90;58.60;;;1.70;92.74;96092.00;4933014;29;20031;-51
2024/02/14 06:34:05;;;;;;;3.45;1.02;;;6.90;58.60;;;1.73;92.64;96102.91;4932085;28;20071;-49
2024/02/14 06:36:30;;;;;;;1.80;0.93;;;6.90;58.60;;;1.78;92.34;96103.13;4932418;29;20554;-52
2024/02/14 06:38:56;;;;;;;3.13;1.10;;;6.90;58.60;;;1.86;92.46;96099.53;4931920;28;20085;-57
2024/02/14 06:41:22;;;;;;;3.72;1.50;;;6.90;58.70;;;1.96;92.19;96105.22;4932814;29;20121;-52
2024/02/14 06:43:49;;;;;;;10.18;1.42;;;6.90;58.70;;;2.04;91.92;96106.88;4932793;29;20030;-51
2024/02/14 06:46:15;;;;;;;3.60;0.93;;;7.00;59.30;;;2.09;91.32;96102.63;4931567;29;20503;-51
2024/02/14 06:48:41;;;;;;;3.17;1.00;;;7.10;58.80;;;2.17;91.60;96106.09;4932821;29;20031;-52
2024/02/14 06:51:08;;;;;;;2.15;1.30;;;7.10;58.70;;;2.20;90.12;96109.13;4931474;29;20027;-51
2024/02/14 06:53:34;;;;;;;7.45;1.10;;;7.20;58.70;;;2.24;90.24;96107.72;4932657;29;20023;-52
2024/02/14 06:56:00;;;;;;;3.70;1.00;;;7.30;58.60;;;2.27;89.97;96106.50;4945620;28;20441;-58
2024/02/14 06:58:26;;;;;;;3.30;1.05;;;7.30;58.80;;;2.28;90.57;96102.88;4932776;29;20023;-51
2024/02/14 07:00:52;;;;;;;2.25;0.82;;;7.40;58.50;;;2.29;89.00;96107.94;4947170;28;20039;-49
2024/02/14 07:03:18;;;;;;;8.05;1.23;;;7.40;58.40;;;2.43;89.91;96110.56;4931001;29;20402;-51
2024/02/14 07:05:44;;;;;;;3.03;0.80;;;7.50;58.40;;;2.48;90.14;96106.34;4931571;29;20035;-50
2024/02/14 07:08:10;;;;;;;3.05;1.00;;;7.60;58.40;;;2.59;90.39;96109.38;4932677;29;20049;-47
2024/02/14 07:10:36;;;;;;;2.13;1.00;;;7.70;58.20;;;2.68;89.60;96116.88;4935284;28;20752;-50
2024/02/14 07:13:03;;;;;;;2.35;1.05;;;7.90;58.20;;;2.83;89.72;96113.25;4949046;28;20398;-49
2024/02/14 07:15:29;;;;;;;4.35;2.00;;;8.00;58.20;;;2.96;87.69;96110.59;4933877;28;20043;-50
2024/02/14 07:17:57;;;;;;;3.90;1.30;;;8.20;58.20;;;3.12;87.12;96114.63;4932337;28;20058;-50
2024/02/14 07:20:25;;;;;;;3.05;0.88;;;8.30;58.00;;;3.32;84.09;96112.78;4945552;28;20815;-52
2024/02/14 07:22:53;;;;;;;1.75;0.80;;;8.50;57.90;;;3.56;85.78;96110.50;4932363;29;20031;-51
2024/02/14 07:25:19;;;;;;;2.15;1.00;;;8.80;57.80;;;3.78;83.55;96100.47;4931910;29;20407;-52
2024/02/14 07:27:48;;;;;;;2.35;0.80;;;9.00;57.70;;;3.99;83.66;96100.19;4946146;28;20549;-49
2024/02/14 07:30:14;;;;;;;2.78;1.08;;;9.20;57.50;;;4.16;84.53;96100.50;4932059;29;20031;-50
2024/02/14 07:32:40;;;;;;;3.35;1.00;;;9.40;57.40;;;4.29;81.90;96103.06;4926921;29;20031;-49
2024/02/14 07:35:07;;;;;;;3.80;1.73;;;9.60;57.20;;;4.44;81.96;96104.59;4932999;28;20027;-47
2024/02/14 07:37:33;;;;;;;1.90;0.93;;;9.70;57.10;;;4.57;77.53;96104.50;4932199;29;20102;-51
2024/02/14 07:39:59;;;;;;;2.63;1.20;;;9.90;56.80;;;4.71;79.05;96100.75;4931009;29;20110;-51
2024/02/14 07:42:25;;;;;;;6.45;1.00;;;10.00;56.60;;;4.85;77.96;96123.38;4938159;29;20105;-52
2024/02/14 07:44:51;;;;;;;2.67;1.00;;;10.20;56.40;;;5.00;78.54;96119.63;4930692;29;20023;-51
2024/02/14 07:47:16;;;;;;;2.88;0.90;;;10.30;56.20;;;5.11;78.10;96116.28;4932199;29;20035;-51
2024/02/14 07:49:42;;;;;;;1.40;0.80;;;10.40;56.00;;;5.23;78.24;96119.84;4932292;29;20029;-51
2024/02/14 07:52:08;;;;;;;1.85;1.00;;;10.60;55.90;;;5.30;75.49;96103.91;4936518;28;20378;-48
2024/02/14 07:54:34;;;;;;;1.52;0.82;;;10.70;55.60;;;5.40;75.32;96101.56;4934043;28;20082;-52
2024/02/14 07:57:00;;;;;;;1.90;1.10;;;10.80;55.30;;;5.49;75.54;96107.38;4931227;29;20513;-50
2024/02/14 07:59:26;;;;;;;4.55;1.20;;;10.90;55.10;;;5.57;75.42;96107.88;4932071;29;20055;-52
2024/02/14 08:01:52;;;;;;;4.63;1.23;;;11.00;55.00;;;5.63;72.87;96097.47;4932078;29;20066;-50
2024/02/14 08:04:18;;;;;;;3.38;0.90;;;11.10;54.70;;;5.70;74.53;96096.38;4935400;29;20051;-49
2024/02/14 08:06:50;;;;;;;2.03;1.02;;;11.20;54.60;;;5.73;73.61;96087.97;4931494;29;20031;-52
2024/02/14 08:09:16;;;;;;;2.25;1.10;;;11.30;54.40;;;5.84;78.08;96090.94;4930016;29;20029;-52
2024/02/14 08:11:42;;;;;;;3.28;0.90;;;11.40;54.50;;;5.93;71.94;96094.94;4931959;29;20023;-54
2024/02/14 08:14:08;;;;;;;2.83;0.93;;;11.60;54.20;;;6.02;71.14;96083.00;4925144;29;20055;-50
2024/02/14 08:16:34;;;;;;;4.60;1.10;;;11.70;53.90;;;6.16;68.86;96099.50;4933870;28;20150;-53
2024/02/14 08:19:00;;;;;;;2.75;1.00;;;11.90;53.80;;;6.25;67.79;96093.69;4950335;28;20030;-50
2024/02/14 08:21:26;;;;;;;2.88;1.23;;;12.00;53.10;;;6.49;67.88;96089.28;4934467;29;20031;-50
2024/02/14 08:23:55;;;;;;;3.90;1.45;;;12.30;52.80;;;6.73;64.89;96092.75;4935532;29;20589;-51
2024/02/14 08:26:22;;;;;;;2.38;1.10;;;12.50;52.50;;;7.00;66.45;96096.84;4934857;28;20046;-50
2024/02/14 08:28:51;;;;;;;3.78;1.10;;;12.70;52.30;;;7.19;62.82;96091.22;4935213;28;20031;-48
2024/02/14 08:31:17;;;;;;;1.83;1.10;;;12.90;51.80;;;7.38;62.41;96094.53;4935285;28;20062;-55
2024/02/14 08:33:43;;;;;;;2.92;1.02;;;13.20;51.70;;;7.58;60.99;96096.00;4958773;23;20051;-50
2024/02/14 08:36:09;;;;;;;1.98;0.95;;;13.40;51.30;;;7.80;62.01;96106.81;4953657;28;20041;-51
2024/02/14 08:38:36;;;;;;;2.67;1.20;;;13.60;51.00;;;7.95;59.98;96093.06;4953534;28;20473;-51
2024/02/14 08:41:05;;;;;;;3.08;1.20;;;13.70;50.60;;;8.14;61.03;96097.16;4954099;28;20049;-51
2024/02/14 08:43:31;;;;;;;1.75;1.05;;;13.90;50.30;;;8.33;60.48;96103.09;4953856;28;20088;-58
2024/02/14 08:45:58;;;;;;;3.00;1.40;;;14.10;50.20;;;8.48;59.01;96098.09;4952474;28;20034;-54
2024/02/14 08:48:26;;;;;;;2.97;1.33;;;14.30;49.80;;;8.60;58.68;96097.22;4948617;28;20125;-53
2024/02/14 08:50:53;;;;;;;1.67;1.38;;;14.50;49.40;;;8.70;58.51;96106.16;4948233;28;20031;-53
2024/02/14 08:53:19;;;;;;;3.38;1.50;;;14.60;49.20;;;8.72;58.89;96104.09;4947395;28;20031;-50
2024/02/14 08:55:45;;;;;;;1.95;1.00;;;14.70;48.90;;;8.87;60.13;96111.50;4947901;28;20022;-51
2024/02/14 08:58:11;;;;;;;3.38;1.50;;;14.80;48.70;;;9.05;59.33;96113.13;4954061;28;20381;-52
2024/02/14 09:00:38;;;;;;;4.35;1.70;;;15.00;48.60;;;9.19;57.10;96119.72;4951069;28;20026;-49
2024/02/14 09:03:05;;;;;;;3.05;1.50;;;15.20;48.30;;;9.32;56.19;96110.63;4948279;28;20022;-49
2024/02/14 09:05:31;;;;;;;3.72;1.40;;;15.50;47.90;;;9.44;55.58;96118.50;4949631;28;20110;-52
2024/02/14 09:07:58;;;;;;;3.55;1.20;;;15.70;47.40;;;9.72;55.48;96120.22;4945252;28;20031;-52
2024/02/14 09:10:24;;;;;;;2.15;1.10;;;15.90;47.00;;;10.01;53.78;96128.03;4950323;28;20026;-48
2024/02/14 09:12:49;;;;;;;3.45;1.15;;;16.20;46.70;;;10.16;53.14;96120.25;4951246;28;20113;-49
2024/02/14 09:15:16;;;;;;;3.25;1.20;;;16.40;46.30;;;10.29;52.65;96124.41;4957418;28;20110;-55
2024/02/14 09:17:42;;;;;;;5.85;1.55;;;16.60;45.80;;;10.32;52.53;96129.25;4966743;28;20497;-49
2024/02/14 09:20:10;;;;;;;4.72;1.38;;;16.70;45.50;;;10.42;51.39;96135.47;4945477;28;20045;-53
2024/02/14 09:22:41;;;;;;;6.47;1.73;;;16.70;45.00;;;10.56;51.78;96135.91;4946312;28;20643;-50
2024/02/14 09:25:11;;;;;;;2.40;1.70;;;16.80;44.70;;;10.63;51.93;96136.50;4955588;28;20034;-55
2024/02/14 09:27:37;;;;;;;2.60;1.25;;;16.70;44.70;;;10.67;51.11;96142.13;4969883;28;20034;-54
2024/02/14 09:30:06;;;;;;;6.50;1.88;;;16.70;44.50;;;10.51;50.58;96135.84;4952088;28;20029;-56
2024/02/14 09:32:31;;;;;;;3.25;1.20;;;16.70;44.20;;;10.51;51.94;96143.84;4950370;28;20485;-52
2024/02/14 09:34:59;;;;;;;2.30;1.30;;;16.70;44.00;;;10.50;50.79;96139.56;4956516;28;20030;-54
2024/02/14 09:37:28;;;;;;;6.07;1.30;;;16.70;43.80;;;10.56;51.09;96138.56;4953622;28;20026;-52
2024/02/14 09:39:54;;;;;;;2.33;1.45;;;16.60;43.80;;;10.50;50.84;96141.41;4957553;28;20121;-52
2024/02/14 09:42:50;;;;;;;1.65;1.15;;;16.70;43.80;;;10.55;51.18;96128.16;4952226;28;20101;-49
2024/02/14 09:45:17;;;;;;;2.17;1.08;;;16.70;43.50;;;10.60;52.47;96128.22;4955641;28;20026;-50
2024/02/14 09:47:46;;;;;;;2.25;1.33;;;16.70;43.80;;;10.60;52.58;96131.69;4957327;28;20125;-54
2024/02/14 09:50:12;;;;;;;1.33;1.17;;;16.80;43.70;;;10.68;50.52;96132.28;4952436;28;20034;-51
2024/02/14 09:52:40;;;;;;;3.00;1.30;;;16.80;43.40;;;10.82;50.96;96123.63;4944470;28;20367;-51
2024/02/14 09:55:11;;;;;;;3.67;1.30;;;16.90;43.20;;;10.92;50.51;96127.44;4953247;28;20447;-55
2024/02/14 09:57:42;;;;;;;3.83;1.30;;;16.90;43.00;;;10.97;51.41;96125.63;4957029;28;20030;-50
2024/02/14 10:00:16;;;;;;;2.42;1.30;;;17.10;43.60;;;11.10;51.73;96127.88;4956630;28;20034;-53
2024/02/14 10:02:42;;;;;;;1.75;1.25;;;17.20;43.00;;;11.11;49.95;96116.13;4970343;28;20118;-50
2024/02/14 10:05:08;;;;;;;2.95;1.10;;;17.40;42.70;;;11.27;49.43;96126.94;4961560;28;20514;-53
2024/02/14 10:07:46;;;;;;;2.83;1.13;;;17.60;42.40;;;11.48;48.25;96120.69;4957930;28;20110;-49
2024/02/14 10:10:13;;;;;;;4.53;1.30;;;17.90;41.90;;;11.60;48.89;96125.84;4944928;28;20049;-50
2024/02/14 10:12:40;;;;;;;3.22;1.17;;;18.10;41.90;;;11.89;46.94;96112.16;4954676;28;20489;-51
2024/02/14 10:15:08;;;;;;;1.98;1.23;;;18.50;41.50;;;12.20;47.39;96121.88;4958077;28;20026;-49
2024/02/14 10:17:34;;;;;;;1.55;1.10;;;18.90;41.10;;;12.43;46.03;96133.19;4949372;28;20031;-51
2024/02/14 10:20:06;;;;;;;6.65;1.77;;;19.30;40.80;;;12.58;45.50;96130.56;4958887;28;20022;-50
2024/02/14 10:22:36;;;;;;;4.15;1.40;;;19.60;40.00;;;12.85;46.75;96132.19;4949682;28;20035;-51
2024/02/14 10:25:08;;;;;;;2.22;1.30;;;19.90;39.60;;;13.11;45.89;96127.69;4959896;28;21267;-50
2024/02/14 10:27:40;;;;;;;4.25;1.75;;;20.10;39.00;;;13.24;43.33;96140.53;4957308;28;20040;-50